You are listening to:
EHAM Arrival (Primary) - Amsterdam, Netherlands

EHAM 140955Z 11010KT CAVOK 06/04 Q1000 NOSIG

If stream does not start automatically press the play button